Valley Mills, Texas
Current Conditions -  °F | °C
As of 5:55 PM on Sunday 23 Nov 2014 (Local Time) from KPWG Reporting Station
Clear Clear  
Wind Chill: 19°   Ceiling: Unl
Heat Index: 19°   Visibility: 10mi
Dew Point:   Wind: 7mph
Humidity: 43%   Direction: 260°W
Pressure: 29.55"   Gusts: NA
Location:  31.66°N, 97.47°W
Report Text: KPWG 232355Z AUTO 26006KT 10SM CLR 19/06 A2955 RMK AO1 10260 20190 52027
Loading
Personal Weather Stations






























Interactive Weather Map New forecast layout! Learn more

10-Day Weather Forecast

Advertisements
Track Severe Weather on mobile